Nearby METAR Reports

 

KJOT - Joliet, Illinois, USA
Distance from station: SSW 3mi, 6km
Updated: 11/23/2017 1:55pm
Clear
Clear
 Wind from SW
Wind: SW 10 mph , 17 km/h
Temperature: 48°F , 9°C
Wind Chill: 44°F , 7°C
Dew Point: 27°F , -3°C
Humidity: 43%
Barometer: 29.92 inHg , 1013.2 hPa
Clouds: Clear
Visibility: 10 miles , 16 km
2017/11/23 19:55 KJOT 231955Z AUTO 23009KT 10SM CLR 09/M03 A2992 RMK AO2 T00881028
KLOT - Romeoville/Chi, Illinois, USA
Distance from station: NE 4mi, 6km
Updated: 11/23/2017 1:55pm
Clear
Clear
 Wind from WSW
Wind: WSW 8 mph , 13 km/h
Temperature: 46°F , 8°C
Wind Chill: 42°F , 6°C
Dew Point: 27°F , -3°C
Humidity: 46%
Barometer: 29.92 inHg , 1013.2 hPa
Clouds: Clear
Visibility: 10 miles , 16 km
2017/11/23 19:55 KLOT 231955Z AUTO 25007KT 10SM CLR 08/M03 A2992 RMK AO2 T00791029
 
KC09 - Morris-Washburn, Illinois, USA
Distance from station: SW 16mi, 26km
Updated: 11/23/2017 1:55pm
Clear
Clear
 Wind from WSW
Wind: WSW 9 mph , 15 km/h
Temperature: 46°F , 8°C
Wind Chill: 41°F , 5°C
Dew Point: 27°F , -3°C
Humidity: 46%
Barometer: 29.92 inHg , 1013.2 hPa
Clouds: Clear
Visibility: 10 miles , 16 km
2017/11/23 19:55 KC09 231955Z AUTO 25008KT 10SM CLR 08/M03 A2992 RMK AO2 T00801034
KARR - Chicago/Aurora, Illinois, USA
Distance from station: NW 22mi, 35km
Updated: 11/23/2017 1:52pm
Clear
Clear
 Wind from WSW
Wind: WSW 9 mph , 15 km/h
Temperature: 45°F , 7°C
Wind Chill: 40°F , 4°C
Dew Point: 27°F , -3°C
Humidity: 49%
Barometer: 29.92 inHg , 1013.2 hPa
Clouds: Clear
Visibility: 10 miles , 16 km
2017/11/23 19:52 KARR 231952Z 25008KT 10SM CLR 07/M03 A2992 RMK AO2 SLP139 T00721033
 
KDPA - Chicago/Dupage, Illinois, USA
Distance from station: NNW 25mi, 40km
Updated: 11/23/2017 1:52pm
Clear
Clear
 Wind from SW
Wind: SW 12 mph , 19 km/h
Temperature: 45°F , 7°C
Wind Chill: 39°F , 4°C
Dew Point: 27°F , -3°C
Humidity: 49%
Barometer: 29.91 inHg , 1012.9 hPa
Clouds: Clear
Visibility: 9 miles , 14 km
2017/11/23 19:52 KDPA 231952Z 22010KT 9SM CLR 07/M03 A2991 RMK AO2 SLP136 T00671033
KMDW - Chicago, Illinois, USA
Distance from station: NE 26mi, 42km
Updated: 11/23/2017 1:53pm
Few Clouds
Few Clouds
 Wind from WSW
Wind: WSW 9 mph , 15 km/h
Temperature: 46°F , 8°C
Wind Chill: 41°F , 5°C
Dew Point: 25°F , -4°C
Humidity: 43%
Barometer: 29.92 inHg , 1013.2 hPa
Clouds: Few Clouds
Visibility: 10 miles , 16 km
Cloud details: Few Clouds 25000 ft
2017/11/23 19:53 KMDW 231953Z 25008KT 10SM FEW250 08/M04 A2992 RMK AO2 SLP137 T00831039
 
KORD - Chicago O'hare, Illinois, USA
Distance from station: NNE 31mi, 50km
Updated: 11/23/2017 1:51pm
Few Clouds
Few Clouds
 Wind from W
Wind: W 10 mph , 17 km/h
Temperature: 46°F , 8°C
Wind Chill: 41°F , 5°C
Dew Point: 23°F , -5°C
Humidity: 40%
Barometer: 29.91 inHg , 1012.9 hPa
Clouds: Few Clouds
Visibility: 10 miles , 16 km
Cloud details: Few Clouds 25000 ft
2017/11/23 19:51 KORD 231951Z 27009KT 10SM FEW250 08/M05 A2991 RMK AO2 SLP133 T00781050
KIGQ - Chicago/Lansing, Illinois, USA
Distance from station: E 32mi, 52km
Updated: 11/23/2017 1:55pm
Clear
Clear
 Wind from SW
Wind: SW 14 mph , 22 km/h, Gust: 18 mph , 30 km/h
Temperature: 48°F , 9°C
Wind Chill: 42°F , 6°C
Dew Point: 30°F , -1°C
Humidity: 50%
Barometer: 29.93 inHg , 1013.5 hPa
Clouds: Clear
Visibility: 10 miles , 16 km
2017/11/23 19:55 KIGQ 231955Z AUTO 23012G16KT 10SM CLR 09/M01 A2993 RMK AO2 T00851012
 
KDKB - De Kalb, Illinois, USA
Distance from station: NW 38mi, 61km
Updated: 11/23/2017 1:55pm
Clear
Clear
 Wind from SW
Wind: SW 10 mph , 17 km/h
Temperature: 45°F , 7°C
Wind Chill: 40°F , 4°C
Dew Point: 27°F , -3°C
Humidity: 49%
Barometer: 29.92 inHg , 1013.2 hPa
Clouds: Clear
Visibility: 10 miles , 16 km
2017/11/23 19:55 KDKB 231955Z AUTO 23009KT 10SM CLR 07/M03 A2992 RMK AO2 T00691032
KIKK - Kankakee, Illinois, USA
Distance from station: SSE 38mi, 61km
Updated: 11/23/2017 1:55pm
Clear
Clear
 Wind from SW
Wind: SW 12 mph , 19 km/h, Gust: 18 mph , 30 km/h
Temperature: 48°F , 9°C
Wind Chill: 43°F , 6°C
Dew Point: 25°F , -4°C
Humidity: 40%
Barometer: 29.95 inHg , 1014.2 hPa
Clouds: Clear
Visibility: 10 miles , 16 km
2017/11/23 19:55 KIKK 231955Z AUTO 23010G16KT 10SM CLR 09/M04 A2995 RMK AO2 T00851036
 
KGYY - Gary Regional, Indiana, USA
Distance from station: E 38mi, 62km
Updated: 11/23/2017 1:45pm
Clear
Clear
 Wind from S
Wind: S 12 mph , 19 km/h
Temperature: 48°F , 9°C
Wind Chill: 43°F , 6°C
Dew Point: 21°F , -6°C
Humidity: 34%
Barometer: 29.93 inHg , 1013.5 hPa
Clouds: Clear
Visibility: 20 miles , 32 km
2017/11/23 19:45 KGYY 231945Z 19010KT 20SM SKC 09/M06 A2993
KPWK - Palwaukee, Illinois, USA
Distance from station: NNE 40mi, 65km
Updated: 11/23/2017 1:52pm
Clear
Clear
 Wind from SW
Wind: SW 10 mph , 17 km/h
Temperature: 46°F , 8°C
Wind Chill: 41°F , 5°C
Dew Point: 25°F , -4°C
Humidity: 43%
Barometer: 29.92 inHg , 1013.2 hPa
Clouds: Clear
Visibility: 10 miles , 16 km
2017/11/23 19:52 KPWK 231952Z 22009KT 10SM CLR 08/M04 A2992 RMK AO2 SLP137 T00781044